createdAt,value
2019-03-28T00:00:44.527Z,9.30
2019-03-28T00:03:14.406Z,13.00
2019-03-28T00:05:42.757Z,14.65
2019-03-28T00:08:12.504Z,12.05
2019-03-28T00:10:40.895Z,13.20
2019-03-28T00:13:09.337Z,11.18
2019-03-28T00:15:37.556Z,10.53
2019-03-28T00:18:05.932Z,8.60
2019-03-28T00:20:35.306Z,11.20
2019-03-28T00:23:27.804Z,9.55
2019-03-28T00:25:57.633Z,9.80
2019-03-28T00:28:25.941Z,9.78
2019-03-28T00:30:54.170Z,10.63
2019-03-28T00:33:22.473Z,9.90
2019-03-28T00:35:51.257Z,10.15
2019-03-28T00:38:19.601Z,10.80
2019-03-28T00:40:47.988Z,9.55
2019-03-28T00:43:16.304Z,9.63
2019-03-28T00:45:44.750Z,11.00
2019-03-28T00:48:13.033Z,9.28
2019-03-28T00:50:41.305Z,9.33
2019-03-28T00:53:09.516Z,11.00
2019-03-28T00:55:37.766Z,8.83
2019-03-28T00:58:05.994Z,12.05
2019-03-28T01:00:34.390Z,10.20
2019-03-28T01:03:02.606Z,9.70
2019-03-28T01:05:30.881Z,9.18
2019-03-28T01:07:59.121Z,9.98
2019-03-28T01:10:27.525Z,9.95
2019-03-28T01:12:55.881Z,9.83
2019-03-28T01:15:24.191Z,9.68
2019-03-28T01:17:52.420Z,11.25
2019-03-28T01:20:20.667Z,11.80
2019-03-28T01:22:48.825Z,13.10
2019-03-28T01:25:17.086Z,12.25
2019-03-28T01:27:45.261Z,13.00
2019-03-28T01:30:13.573Z,10.98
2019-03-28T01:32:41.861Z,12.05
2019-03-28T01:35:10.101Z,9.58
2019-03-28T01:37:38.285Z,12.95
2019-03-28T01:40:06.778Z,10.43
2019-03-28T01:42:35.067Z,12.03
2019-03-28T01:45:03.645Z,11.40
2019-03-28T01:47:32.629Z,12.28
2019-03-28T01:50:00.853Z,10.15
2019-03-28T01:52:30.472Z,13.08
2019-03-28T01:54:58.670Z,11.55
2019-03-28T01:57:27.085Z,11.88
2019-03-28T01:59:55.288Z,15.85
2019-03-28T02:02:23.534Z,12.50
2019-03-28T02:04:52.294Z,12.23
2019-03-28T02:07:20.771Z,10.32
2019-03-28T02:09:48.957Z,12.28
2019-03-28T02:12:17.374Z,17.90
2019-03-28T02:14:45.485Z,11.65
2019-03-28T02:17:13.768Z,11.78
2019-03-28T02:19:42.021Z,11.60
2019-03-28T02:22:10.319Z,10.70
2019-03-28T02:24:38.520Z,10.32
2019-03-28T02:27:06.823Z,11.28
2019-03-28T02:29:35.059Z,15.63
2019-03-28T02:32:03.354Z,10.53
2019-03-28T02:34:31.560Z,10.45
2019-03-28T02:36:59.862Z,14.75
2019-03-28T02:39:27.956Z,11.35
2019-03-28T02:41:56.071Z,12.15
2019-03-28T02:44:24.360Z,11.57
2019-03-28T02:46:52.654Z,10.88
2019-03-28T02:49:20.931Z,12.00
2019-03-28T02:51:49.256Z,15.60
2019-03-28T02:54:17.586Z,11.55
2019-03-28T02:56:45.850Z,9.65
2019-03-28T02:59:14.126Z,10.88
2019-03-28T03:01:42.327Z,10.03
2019-03-28T03:04:10.699Z,9.45
2019-03-28T03:06:38.925Z,11.10
2019-03-28T03:09:09.125Z,10.28
2019-03-28T03:11:37.585Z,11.57
2019-03-28T03:14:05.876Z,9.68
2019-03-28T03:16:34.107Z,9.85
2019-03-28T03:19:02.410Z,12.60
2019-03-28T03:21:30.623Z,11.70
2019-03-28T03:23:59.014Z,12.88
2019-03-28T03:26:27.284Z,11.10
2019-03-28T03:28:55.506Z,10.93
2019-03-28T03:31:24.890Z,16.57
2019-03-28T03:33:53.852Z,12.30
2019-03-28T03:36:23.145Z,18.23
2019-03-28T03:38:51.444Z,16.02
2019-03-28T03:41:19.754Z,12.05
2019-03-28T03:43:48.077Z,12.15
2019-03-28T03:46:16.418Z,12.07
2019-03-28T03:48:44.626Z,12.85
2019-03-28T03:51:30.605Z,12.37
2019-03-28T03:54:09.865Z,10.18
2019-03-28T03:57:00.359Z,10.82
2019-03-28T03:59:42.401Z,10.72
2019-03-28T04:02:19.944Z,12.93
2019-03-28T04:05:00.891Z,11.08
2019-03-28T04:07:33.455Z,13.53
2019-03-28T04:10:03.479Z,12.20
2019-03-28T04:12:43.815Z,14.83
2019-03-28T04:15:19.392Z,10.75
2019-03-28T04:20:48.767Z,12.37
2019-03-28T04:23:25.018Z,13.60
2019-03-28T04:25:58.052Z,10.68
2019-03-28T04:28:32.338Z,14.23
2019-03-28T04:31:04.577Z,10.38
2019-03-28T04:33:35.870Z,14.78
2019-03-28T04:36:06.982Z,10.90
2019-03-28T04:38:41.217Z,11.20
2019-03-28T04:41:16.726Z,10.98
2019-03-28T04:43:51.017Z,15.95
2019-03-28T04:46:28.834Z,13.93
2019-03-28T04:49:07.042Z,13.20
2019-03-28T04:51:36.937Z,13.95
2019-03-28T04:54:05.188Z,15.30
2019-03-28T04:56:33.689Z,12.35
2019-03-28T04:59:01.821Z,16.65
2019-03-28T05:01:30.139Z,17.75
2019-03-28T05:04:11.567Z,14.95
2019-03-28T05:06:41.488Z,18.48
2019-03-28T05:09:11.661Z,12.93
2019-03-28T05:11:59.424Z,12.05
2019-03-28T05:14:32.419Z,13.28
2019-03-28T05:17:00.791Z,13.18
2019-03-28T05:19:29.009Z,12.63
2019-03-28T05:21:57.407Z,12.10
2019-03-28T05:24:25.807Z,12.53
2019-03-28T05:26:54.009Z,14.53
2019-03-28T05:29:22.281Z,13.83
2019-03-28T05:31:50.529Z,10.63
2019-03-28T05:34:18.926Z,12.55
2019-03-28T05:36:47.151Z,13.83
2019-03-28T05:39:15.569Z,11.93
2019-03-28T05:41:43.797Z,13.53
2019-03-28T05:44:12.131Z,11.63
2019-03-28T05:46:40.287Z,12.80
2019-03-28T05:49:08.666Z,10.70
2019-03-28T05:51:36.899Z,9.85
2019-03-28T05:54:05.229Z,12.45
2019-03-28T05:56:33.508Z,12.43
2019-03-28T05:59:10.899Z,11.28
2019-03-28T06:01:32.421Z,12.65
2019-03-28T06:04:00.964Z,10.90
2019-03-28T06:06:29.202Z,11.57
2019-03-28T06:08:57.525Z,11.40
2019-03-28T06:11:25.726Z,12.25
2019-03-28T06:13:54.046Z,12.98
2019-03-28T06:16:22.279Z,12.05
2019-03-28T06:18:50.571Z,12.33
2019-03-28T06:21:18.808Z,12.65
2019-03-28T06:23:47.037Z,11.12
2019-03-28T06:26:15.678Z,13.38
2019-03-28T06:28:44.066Z,15.23
2019-03-28T06:31:12.334Z,13.55
2019-03-28T06:33:40.659Z,15.50
2019-03-28T06:36:08.824Z,15.75
2019-03-28T06:38:37.049Z,12.05
2019-03-28T06:41:05.397Z,13.58
2019-03-28T06:43:33.720Z,13.75
2019-03-28T06:46:02.101Z,12.13
2019-03-28T06:48:30.424Z,12.90
2019-03-28T06:50:58.817Z,17.82
2019-03-28T06:53:27.300Z,14.87
2019-03-28T06:55:55.692Z,17.40
2019-03-28T06:58:24.019Z,13.35
2019-03-28T07:00:52.430Z,12.82
2019-03-28T07:03:20.757Z,18.40
2019-03-28T07:05:49.005Z,14.33
2019-03-28T07:08:17.330Z,14.13
2019-03-28T07:10:45.633Z,13.78
2019-03-28T07:13:13.937Z,14.47
2019-03-28T07:15:42.322Z,15.83
2019-03-28T07:18:10.550Z,15.58
2019-03-28T07:20:38.855Z,16.45
2019-03-28T07:23:07.152Z,18.90
2019-03-28T07:25:35.369Z,14.80
2019-03-28T07:28:06.246Z,18.75
2019-03-28T07:30:33.849Z,14.07
2019-03-28T07:33:02.249Z,15.00
2019-03-28T07:35:30.469Z,14.00
2019-03-28T07:37:58.783Z,22.77
2019-03-28T07:40:27.012Z,14.53
2019-03-28T07:42:55.304Z,20.85
2019-03-28T07:45:24.142Z,18.98
2019-03-28T07:47:52.449Z,16.48
2019-03-28T07:50:20.712Z,15.53
2019-03-28T07:52:49.025Z,15.13
2019-03-28T07:55:17.271Z,20.27
2019-03-28T07:57:45.602Z,14.07
2019-03-28T08:00:14.094Z,15.10
2019-03-28T08:02:42.680Z,14.20
2019-03-28T08:05:12.577Z,16.75
2019-03-28T08:07:45.254Z,15.38
2019-03-28T08:10:11.598Z,18.90
2019-03-28T08:12:40.316Z,15.45
2019-03-28T08:15:09.667Z,16.55
2019-03-28T08:17:38.549Z,12.93
2019-03-28T08:20:09.369Z,11.55
2019-03-28T08:22:38.000Z,14.78
2019-03-28T08:25:10.991Z,15.93
2019-03-28T08:27:37.534Z,14.40
2019-03-28T08:30:17.536Z,12.10
2019-03-28T08:32:39.819Z,12.25
2019-03-28T08:35:08.103Z,14.68
2019-03-28T08:37:37.195Z,11.18
2019-03-28T08:40:07.650Z,11.30
2019-03-28T08:42:37.498Z,18.70
2019-03-28T08:45:07.091Z,13.10
2019-03-28T08:47:35.949Z,10.80
2019-03-28T08:50:04.570Z,10.93
2019-03-28T08:52:33.101Z,16.35
2019-03-28T08:55:01.300Z,11.03
2019-03-28T08:57:31.233Z,14.53
2019-03-28T08:59:59.529Z,10.45
2019-03-28T09:02:27.827Z,8.98
2019-03-28T09:04:56.138Z,11.48
2019-03-28T09:07:24.351Z,9.93
2019-03-28T09:09:52.649Z,7.37
2019-03-28T09:12:20.766Z,10.08
2019-03-28T09:14:49.085Z,8.23
2019-03-28T09:17:17.364Z,9.30
2019-03-28T09:19:45.676Z,9.10
2019-03-28T09:22:13.922Z,8.65
2019-03-28T09:24:42.253Z,8.18
2019-03-28T09:27:10.491Z,10.23
2019-03-28T09:29:38.721Z,9.05
2019-03-28T09:32:07.077Z,8.00
2019-03-28T09:34:35.289Z,10.08
2019-03-28T09:37:03.619Z,8.60
2019-03-28T09:39:31.928Z,8.73
2019-03-28T09:42:00.258Z,8.18
2019-03-28T09:44:28.803Z,7.20
2019-03-28T09:46:57.062Z,7.42
2019-03-28T09:49:25.307Z,8.28
2019-03-28T09:51:53.529Z,10.63
2019-03-28T09:54:21.768Z,7.20
2019-03-28T09:56:50.104Z,12.10
2019-03-28T09:59:18.218Z,8.23
2019-03-28T10:01:46.531Z,8.45
2019-03-28T10:04:14.765Z,7.03
2019-03-28T10:06:46.396Z,7.45
2019-03-28T10:09:14.630Z,7.37
2019-03-28T10:12:03.718Z,8.40
2019-03-28T10:14:34.086Z,7.67
2019-03-28T10:17:02.673Z,9.08
2019-03-28T10:19:30.927Z,8.90
2019-03-28T10:21:59.224Z,8.38
2019-03-28T10:24:27.445Z,11.12
2019-03-28T10:26:55.662Z,11.10
2019-03-28T10:29:23.892Z,8.78
2019-03-28T10:31:52.102Z,7.97
2019-03-28T10:34:20.378Z,10.85
2019-03-28T10:36:48.689Z,9.88
2019-03-28T10:39:16.987Z,12.30
2019-03-28T10:41:45.291Z,11.90
2019-03-28T10:44:13.533Z,9.25
2019-03-28T10:46:41.853Z,11.55
2019-03-28T10:49:10.193Z,9.65
2019-03-28T10:51:38.446Z,9.33
2019-03-28T10:54:19.301Z,11.38
2019-03-28T10:56:50.756Z,13.10
2019-03-28T10:59:07.135Z,9.95
2019-03-28T11:01:48.034Z,11.00
2019-03-28T11:04:05.685Z,12.75
2019-03-28T11:06:33.897Z,8.50
2019-03-28T11:09:03.800Z,8.68
2019-03-28T11:11:32.942Z,10.98
2019-03-28T11:14:01.438Z,8.30
2019-03-28T11:16:29.719Z,8.20
2019-03-28T11:18:58.156Z,10.85
2019-03-28T11:21:26.546Z,7.37
2019-03-28T11:23:54.877Z,8.78
2019-03-28T11:26:23.117Z,7.90
2019-03-28T11:28:51.445Z,7.83
2019-03-28T11:31:19.654Z,11.05
2019-03-28T11:33:47.956Z,7.50
2019-03-28T11:36:16.295Z,7.53
2019-03-28T11:38:44.573Z,9.38
2019-03-28T11:41:12.817Z,10.78
2019-03-28T11:43:41.204Z,9.38
2019-03-28T11:46:09.436Z,9.35
2019-03-28T11:48:37.682Z,10.63
2019-03-28T11:51:05.946Z,6.65
2019-03-28T11:53:34.331Z,6.62
2019-03-28T11:56:03.095Z,10.23
2019-03-28T11:58:31.309Z,7.22
2019-03-28T12:01:00.606Z,7.20
2019-03-28T12:03:28.934Z,6.17
2019-03-28T12:05:57.226Z,10.55
2019-03-28T12:08:25.535Z,6.03
2019-03-28T12:10:53.717Z,5.10
2019-03-28T12:13:21.947Z,11.53
2019-03-28T12:15:50.974Z,5.35
2019-03-28T12:18:19.494Z,5.53
2019-03-28T12:20:47.897Z,8.68
2019-03-28T12:23:16.207Z,12.73
2019-03-28T12:25:47.252Z,8.18
2019-03-28T12:28:14.556Z,8.63
2019-03-28T12:30:43.741Z,10.10
2019-03-28T12:33:12.480Z,9.43
2019-03-28T12:35:40.785Z,8.45
2019-03-28T12:38:09.111Z,8.68
2019-03-28T12:40:37.608Z,6.58
2019-03-28T12:43:05.749Z,8.05
2019-03-28T12:45:34.257Z,7.30
2019-03-28T12:48:03.008Z,5.83
2019-03-28T12:50:31.297Z,6.92
2019-03-28T12:52:59.714Z,6.33
2019-03-28T12:55:27.958Z,5.92
2019-03-28T12:57:56.772Z,6.90
2019-03-28T13:00:43.418Z,6.03
2019-03-28T13:03:11.668Z,5.62
2019-03-28T13:05:39.920Z,5.00
2019-03-28T13:08:08.289Z,6.20
2019-03-28T13:10:36.531Z,5.85
2019-03-28T13:13:04.843Z,7.17
2019-03-28T13:15:33.100Z,6.08
2019-03-28T13:18:01.476Z,7.33
2019-03-28T13:20:29.825Z,7.30
2019-03-28T13:22:58.114Z,10.32
2019-03-28T13:25:26.501Z,5.62
2019-03-28T13:27:54.818Z,6.70
2019-03-28T13:30:23.156Z,7.75
2019-03-28T13:32:51.694Z,5.90
2019-03-28T13:35:19.967Z,7.97
2019-03-28T13:37:48.328Z,10.00
2019-03-28T13:40:16.652Z,6.60
2019-03-28T13:42:44.942Z,6.30
2019-03-28T13:45:14.538Z,6.95
2019-03-28T13:47:43.351Z,7.80
2019-03-28T13:50:12.438Z,7.08
2019-03-28T13:52:41.316Z,7.75
2019-03-28T13:55:09.665Z,6.28
2019-03-28T13:57:38.170Z,7.75
2019-03-28T14:00:07.072Z,5.72
2019-03-28T14:02:36.483Z,8.60
2019-03-28T14:05:05.365Z,8.00
2019-03-28T14:07:34.005Z,7.40
2019-03-28T14:10:02.951Z,7.75
2019-03-28T14:12:32.581Z,6.15
2019-03-28T14:15:00.918Z,10.43
2019-03-28T14:17:29.362Z,6.62
2019-03-28T14:19:57.696Z,5.65
2019-03-28T14:22:26.442Z,6.08
2019-03-28T14:24:55.971Z,6.60
2019-03-28T14:27:24.231Z,6.37
2019-03-28T14:29:52.442Z,7.20
2019-03-28T14:32:20.670Z,6.00
2019-03-28T14:34:49.165Z,6.92
2019-03-28T14:37:17.903Z,6.30
2019-03-28T14:39:49.126Z,6.42
2019-03-28T14:42:19.529Z,6.45
2019-03-28T14:44:47.035Z,5.78
2019-03-28T14:47:15.692Z,5.25
2019-03-28T14:49:44.236Z,6.42
2019-03-28T14:52:12.691Z,5.35
2019-03-28T14:54:41.080Z,6.92
2019-03-28T14:57:10.002Z,5.75
2019-03-28T14:59:39.872Z,6.17
2019-03-28T15:02:09.717Z,5.72
2019-03-28T15:04:38.219Z,5.25
2019-03-28T15:07:07.497Z,5.05
2019-03-28T15:09:36.461Z,4.28
2019-03-28T15:12:04.777Z,4.65
2019-03-28T15:14:33.211Z,6.15
2019-03-28T15:17:01.590Z,4.17
2019-03-28T15:19:29.956Z,4.60
2019-03-28T15:21:58.365Z,5.90
2019-03-28T15:24:26.620Z,6.53
2019-03-28T15:26:54.858Z,5.95
2019-03-28T15:29:23.233Z,5.17
2019-03-28T15:31:51.605Z,7.30
2019-03-28T15:34:19.835Z,6.53
2019-03-28T15:36:48.043Z,5.67
2019-03-28T15:39:16.318Z,5.78
2019-03-28T15:41:44.731Z,6.65
2019-03-28T15:44:12.971Z,5.40
2019-03-28T15:46:41.331Z,6.17
2019-03-28T15:49:09.682Z,6.65
2019-03-28T15:51:37.957Z,6.40
2019-03-28T15:54:06.321Z,5.97
2019-03-28T15:56:34.727Z,6.17
2019-03-28T15:59:02.914Z,6.78
2019-03-28T16:01:34.350Z,6.62
2019-03-28T16:04:02.686Z,4.83
2019-03-28T16:06:31.261Z,6.60
2019-03-28T16:08:59.744Z,5.08
2019-03-28T16:11:28.202Z,4.47
2019-03-28T16:14:01.142Z,3.92
2019-03-28T16:16:29.373Z,6.12
2019-03-28T16:18:57.701Z,3.55
2019-03-28T16:21:26.835Z,5.03
2019-03-28T16:23:55.523Z,4.15
2019-03-28T16:26:23.917Z,4.80
2019-03-28T16:28:52.223Z,5.35
2019-03-28T16:31:20.493Z,6.10
2019-03-28T16:33:48.868Z,5.15
2019-03-28T16:36:17.112Z,6.53
2019-03-28T16:38:45.829Z,4.87
2019-03-28T16:41:14.266Z,7.62
2019-03-28T16:43:42.597Z,7.05
2019-03-28T16:46:10.877Z,6.70
2019-03-28T16:48:39.217Z,7.03
2019-03-28T16:51:07.390Z,6.15
2019-03-28T16:53:35.778Z,9.33
2019-03-28T16:56:04.332Z,5.92
2019-03-28T16:58:32.793Z,7.70
2019-03-28T17:01:01.350Z,6.83
2019-03-28T17:03:29.749Z,5.28
2019-03-28T17:05:58.381Z,5.30
2019-03-28T17:08:28.460Z,6.42
2019-03-28T17:10:58.384Z,6.00
2019-03-28T17:13:26.703Z,6.83
2019-03-28T17:15:55.295Z,6.70
2019-03-28T17:18:23.696Z,5.80
2019-03-28T17:20:52.189Z,5.90
2019-03-28T17:23:20.637Z,6.80
2019-03-28T17:25:48.972Z,6.40
2019-03-28T17:28:17.209Z,9.55
2019-03-28T17:30:45.764Z,7.70
2019-03-28T17:33:17.539Z,6.50
2019-03-28T17:35:44.398Z,8.15
2019-03-28T17:38:12.906Z,6.22
2019-03-28T17:40:41.942Z,6.37
2019-03-28T17:43:10.473Z,6.05
2019-03-28T17:45:38.944Z,7.58
2019-03-28T17:48:07.329Z,7.37
2019-03-28T17:50:35.789Z,7.10
2019-03-28T17:53:04.330Z,7.50
2019-03-28T17:55:32.742Z,9.03
2019-03-28T17:58:01.088Z,7.70
2019-03-28T18:00:29.585Z,7.20
2019-03-28T18:03:08.351Z,6.85
2019-03-28T18:05:28.032Z,9.05
2019-03-28T18:07:56.411Z,7.05
2019-03-28T18:10:24.814Z,6.12
2019-03-28T18:12:53.339Z,7.90
2019-03-28T18:15:21.634Z,7.90
2019-03-28T18:17:49.956Z,7.15
2019-03-28T18:20:18.609Z,6.50
2019-03-28T18:22:47.175Z,9.68
2019-03-28T18:25:15.701Z,7.80
2019-03-28T18:27:44.059Z,6.70
2019-03-28T18:30:12.809Z,6.65
2019-03-28T18:32:41.778Z,5.50
2019-03-28T18:35:10.535Z,6.45
2019-03-28T18:37:38.975Z,7.17
2019-03-28T18:40:07.341Z,5.40
2019-03-28T18:42:35.957Z,5.30
2019-03-28T18:45:04.826Z,6.85
2019-03-28T18:47:33.887Z,6.80
2019-03-28T18:50:03.798Z,6.83
2019-03-28T18:52:33.681Z,5.50
2019-03-28T18:55:01.991Z,7.30
2019-03-28T18:57:32.099Z,5.75
2019-03-28T19:00:00.550Z,6.22
2019-03-28T19:02:30.439Z,6.30
2019-03-28T19:04:58.851Z,13.35
2019-03-28T19:07:27.245Z,6.12
2019-03-28T19:09:55.758Z,7.55
2019-03-28T19:12:24.199Z,6.12
2019-03-28T19:14:52.533Z,7.22
2019-03-28T19:17:20.913Z,6.60
2019-03-28T19:19:49.340Z,6.60
2019-03-28T19:22:17.695Z,7.20
2019-03-28T19:24:48.775Z,6.90
2019-03-28T19:27:17.074Z,5.90
2019-03-28T19:29:45.398Z,6.87
2019-03-28T19:32:13.558Z,6.22
2019-03-28T19:34:42.017Z,6.30
2019-03-28T19:37:10.774Z,6.30
2019-03-28T19:39:39.415Z,7.25
2019-03-28T19:42:08.787Z,6.90
2019-03-28T19:44:37.627Z,6.75
2019-03-28T19:47:06.176Z,7.45
2019-03-28T19:49:34.449Z,6.30
2019-03-28T19:52:02.955Z,6.40
2019-03-28T19:54:31.475Z,6.40
2019-03-28T19:57:00.068Z,6.12
2019-03-28T19:59:28.850Z,5.97
2019-03-28T20:01:58.142Z,5.40
2019-03-28T20:04:26.728Z,6.35
2019-03-28T20:06:55.155Z,7.20
2019-03-28T20:09:23.440Z,6.28
2019-03-28T20:11:51.848Z,6.85
2019-03-28T20:14:20.118Z,6.17
2019-03-28T20:16:48.482Z,7.22
2019-03-28T20:19:17.909Z,6.42
2019-03-28T20:21:46.722Z,6.12
2019-03-28T20:24:15.039Z,6.25
2019-03-28T20:26:43.400Z,7.35
2019-03-28T20:29:11.813Z,6.67
2019-03-28T20:31:40.145Z,7.53
2019-03-28T20:34:08.423Z,6.80
2019-03-28T20:36:39.508Z,6.75
2019-03-28T20:39:07.876Z,6.50
2019-03-28T20:41:36.958Z,6.95
2019-03-28T20:44:05.512Z,7.58
2019-03-28T20:46:33.876Z,7.22
2019-03-28T20:49:02.267Z,7.20
2019-03-28T20:51:30.592Z,6.85
2019-03-28T20:53:59.056Z,6.37
2019-03-28T20:56:27.322Z,7.12
2019-03-28T20:58:55.740Z,6.90
2019-03-28T21:01:24.014Z,6.65
2019-03-28T21:03:52.468Z,6.60
2019-03-28T21:06:21.383Z,6.50
2019-03-28T21:08:49.808Z,6.42
2019-03-28T21:11:18.271Z,6.45
2019-03-28T21:13:46.646Z,7.15
2019-03-28T21:16:14.937Z,6.67
2019-03-28T21:18:43.292Z,5.85
2019-03-28T21:21:11.586Z,6.50
2019-03-28T21:23:39.973Z,7.22
2019-03-28T21:26:08.201Z,7.47
2019-03-28T21:28:46.448Z,6.10
2019-03-28T21:31:06.608Z,6.80
2019-03-28T21:33:34.958Z,7.15
2019-03-28T21:36:03.395Z,7.12
2019-03-28T21:38:31.760Z,7.20
2019-03-28T21:41:00.131Z,7.55
2019-03-28T21:43:28.450Z,7.00
2019-03-28T21:45:56.717Z,7.35
2019-03-28T21:48:25.056Z,7.55
2019-03-28T21:50:53.857Z,7.75
2019-03-28T21:53:22.302Z,6.87
2019-03-28T21:55:55.314Z,8.20
2019-03-28T21:58:20.910Z,7.92
2019-03-28T22:00:49.235Z,6.47
2019-03-28T22:03:17.772Z,7.30
2019-03-28T22:05:46.101Z,6.60
2019-03-28T22:08:14.455Z,6.10
2019-03-28T22:10:43.088Z,7.28
2019-03-28T22:13:12.272Z,7.35
2019-03-28T22:15:40.874Z,7.15
2019-03-28T22:18:09.042Z,7.65
2019-03-28T22:20:37.393Z,7.10
2019-03-28T22:23:05.675Z,7.00
2019-03-28T22:25:34.072Z,7.00
2019-03-28T22:28:02.291Z,6.67
2019-03-28T22:30:30.774Z,6.58
2019-03-28T22:32:58.974Z,7.00
2019-03-28T22:35:27.283Z,6.90
2019-03-28T22:37:55.553Z,7.25
2019-03-28T22:40:23.858Z,8.53
2019-03-28T22:42:52.058Z,7.35
2019-03-28T22:45:20.333Z,6.70
2019-03-28T22:47:48.735Z,7.80
2019-03-28T22:50:16.861Z,6.75
2019-03-28T22:52:45.139Z,7.08
2019-03-28T22:55:13.436Z,7.87
2019-03-28T22:57:42.135Z,8.75
2019-03-28T23:00:12.161Z,7.08
2019-03-28T23:02:41.586Z,7.58
2019-03-28T23:05:10.405Z,8.20
2019-03-28T23:07:40.876Z,8.40
2019-03-28T23:10:10.053Z,8.08
2019-03-28T23:12:39.949Z,8.25
2019-03-28T23:15:08.434Z,8.30
2019-03-28T23:17:37.315Z,8.58
2019-03-28T23:20:05.997Z,10.53
2019-03-28T23:22:35.451Z,8.68
2019-03-28T23:25:04.708Z,7.87
2019-03-28T23:27:33.185Z,7.37
2019-03-28T23:30:02.921Z,7.33
2019-03-28T23:32:33.019Z,8.68
2019-03-28T23:35:01.330Z,8.18
2019-03-28T23:37:30.287Z,8.40
2019-03-28T23:39:58.570Z,8.85
2019-03-28T23:42:26.923Z,7.80
2019-03-28T23:44:55.255Z,9.10
2019-03-28T23:47:23.474Z,8.00
2019-03-28T23:49:51.807Z,9.58
2019-03-28T23:52:19.911Z,8.90
2019-03-28T23:54:48.509Z,9.15
2019-03-28T23:57:16.755Z,9.23
2019-03-28T23:59:45.168Z,8.50
